createdAt,value
2022-08-30T04:06:39.510Z,0.00
2022-08-30T04:07:40.414Z,0.00
2022-08-30T04:08:40.403Z,0.00
2022-08-30T04:09:40.400Z,0.00
2022-08-30T04:10:40.377Z,4.00
2022-08-30T04:11:40.379Z,4.00
2022-08-30T04:12:40.355Z,0.00
2022-08-30T04:13:40.351Z,4.00
2022-08-30T04:14:40.333Z,4.00
2022-08-30T04:15:40.320Z,4.00
2022-08-30T04:16:40.351Z,8.00
2022-08-30T04:17:40.314Z,8.00
2022-08-30T04:18:40.324Z,8.00
2022-08-30T04:20:38.767Z,12.00
2022-08-30T04:21:42.970Z,16.00
2022-08-30T04:22:39.743Z,16.00
2022-08-30T04:23:39.730Z,20.00
2022-08-30T04:24:39.717Z,24.00
2022-08-30T04:25:39.710Z,28.00
2022-08-30T04:26:39.700Z,32.00
2022-08-30T04:27:39.690Z,36.00
2022-08-30T04:28:39.669Z,44.00
2022-08-30T04:29:39.660Z,48.00
2022-08-30T04:30:39.656Z,56.00
2022-08-30T04:31:39.697Z,64.00
2022-08-30T04:32:39.636Z,72.00
2022-08-30T04:33:39.611Z,80.00
2022-08-30T04:35:50.313Z,108.00
2022-08-30T04:36:51.328Z,120.00
2022-08-30T04:37:51.288Z,136.00
2022-08-30T04:38:51.291Z,152.00
2022-08-30T04:39:51.257Z,164.00
2022-08-30T04:40:51.245Z,184.00
2022-08-30T04:41:51.245Z,200.00
2022-08-30T04:42:51.246Z,220.00
2022-08-30T04:43:51.225Z,240.00
2022-08-30T04:44:51.201Z,264.00
2022-08-30T04:45:51.237Z,292.00
2022-08-30T04:46:51.170Z,312.00
2022-08-30T04:47:51.197Z,336.00
2022-08-30T04:48:51.151Z,360.00
2022-08-30T04:49:51.198Z,388.00
2022-08-30T04:50:51.126Z,412.00
2022-08-30T04:51:51.117Z,440.00
2022-08-30T04:52:51.116Z,468.00
2022-08-30T04:53:51.100Z,488.00
2022-08-30T04:54:51.091Z,520.00
2022-08-30T04:55:51.090Z,552.00
2022-08-30T04:56:51.070Z,588.00
2022-08-30T04:57:51.055Z,628.00
2022-08-30T04:58:51.050Z,656.00
2022-08-30T04:59:51.049Z,692.00
2022-08-30T05:00:52.020Z,720.00
2022-08-30T05:01:51.076Z,752.00
2022-08-30T05:02:51.071Z,788.00
2022-08-30T05:03:50.994Z,824.00
2022-08-30T05:04:50.994Z,844.00
2022-08-30T05:05:50.973Z,864.00
2022-08-30T05:06:50.982Z,900.00
2022-08-30T05:07:50.991Z,960.00
2022-08-30T05:08:50.927Z,1020.00
2022-08-30T05:09:50.926Z,1064.00
2022-08-30T05:10:50.922Z,1108.00
2022-08-30T05:11:50.917Z,1172.00
2022-08-30T05:12:50.897Z,1248.00
2022-08-30T05:13:50.883Z,1320.00
2022-08-30T05:14:50.869Z,1384.00
2022-08-30T05:15:50.935Z,1412.00
2022-08-30T05:16:50.865Z,1400.00
2022-08-30T05:17:50.843Z,1376.00
2022-08-30T05:18:50.829Z,1372.00
2022-08-30T05:19:50.814Z,1388.00
2022-08-30T05:20:50.811Z,1404.00
2022-08-30T05:21:50.810Z,1424.00
2022-08-30T05:22:53.702Z,1464.00
2022-08-30T05:23:51.002Z,1500.00
2022-08-30T05:24:50.764Z,1532.00
2022-08-30T05:25:50.796Z,1564.00
2022-08-30T05:26:50.745Z,1588.00
2022-08-30T05:27:50.728Z,1608.00
2022-08-30T05:28:50.708Z,1640.00
2022-08-30T05:29:50.707Z,1684.00
2022-08-30T05:30:50.901Z,1740.00
2022-08-30T05:31:51.347Z,1800.00
2022-08-30T05:32:52.005Z,1868.00
2022-08-30T05:33:51.292Z,1960.00
2022-08-30T05:34:57.228Z,2056.00
2022-08-30T05:35:50.682Z,2148.00
2022-08-30T05:36:50.638Z,2252.00
2022-08-30T05:37:50.620Z,2396.00
2022-08-30T05:38:50.646Z,2632.00
2022-08-30T05:39:51.218Z,2908.00
2022-08-30T05:40:50.601Z,3080.00
2022-08-30T05:41:50.599Z,3128.00
2022-08-30T05:42:50.551Z,3160.00
2022-08-30T05:43:50.560Z,3212.00
2022-08-30T05:44:50.533Z,3208.00
2022-08-30T05:45:50.529Z,3116.00
2022-08-30T05:46:50.517Z,2944.00
2022-08-30T05:47:50.514Z,2792.00
2022-08-30T05:48:50.495Z,2636.00
2022-08-30T05:49:50.482Z,2540.00
2022-08-30T05:50:50.497Z,2464.00
2022-08-30T05:51:50.451Z,2364.00
2022-08-30T05:52:50.476Z,2440.00
2022-08-30T05:53:50.463Z,2432.00
2022-08-30T05:54:50.454Z,2360.00
2022-08-30T05:55:50.420Z,2288.00
2022-08-30T05:56:50.425Z,2208.00
2022-08-30T05:57:50.403Z,2140.00
2022-08-30T05:58:50.396Z,2084.00
2022-08-30T05:59:50.365Z,2056.00
2022-08-30T06:00:50.370Z,2044.00
2022-08-30T06:01:50.438Z,2052.00
2022-08-30T06:02:51.398Z,2076.00
2022-08-30T06:03:50.341Z,2112.00
2022-08-30T06:04:50.318Z,2172.00
2022-08-30T06:05:50.316Z,2232.00
2022-08-30T06:06:51.532Z,2292.00
2022-08-30T06:07:50.808Z,2348.00
2022-08-30T06:08:51.473Z,2408.00
2022-08-30T06:09:50.327Z,2448.00
2022-08-30T06:10:50.247Z,2484.00
2022-08-30T06:11:50.254Z,2528.00
2022-08-30T06:12:50.255Z,2576.00
2022-08-30T06:13:50.229Z,2604.00
2022-08-30T06:14:50.196Z,2628.00
2022-08-30T06:15:50.220Z,2640.00
2022-08-30T06:16:50.193Z,2664.00
2022-08-30T06:17:50.182Z,2668.00
2022-08-30T06:18:50.180Z,2680.00
2022-08-30T06:19:50.136Z,2680.00
2022-08-30T06:20:50.903Z,2696.00
2022-08-30T06:21:50.152Z,2776.00
2022-08-30T06:22:50.103Z,2836.00
2022-08-30T06:23:50.109Z,2864.00
2022-08-30T06:24:58.152Z,2884.00
2022-08-30T06:25:50.091Z,2928.00
2022-08-30T06:26:50.096Z,2956.00
2022-08-30T06:27:54.483Z,2968.00
2022-08-30T06:28:50.054Z,3008.00
2022-08-30T06:29:50.046Z,3056.00
2022-08-30T06:30:50.029Z,3116.00
2022-08-30T06:31:50.119Z,3188.00
2022-08-30T06:32:50.031Z,3272.00
2022-08-30T06:33:49.999Z,3332.00
2022-08-30T06:34:49.978Z,3368.00
2022-08-30T06:35:58.303Z,3404.00
2022-08-30T06:36:49.964Z,3432.00
2022-08-30T06:37:49.964Z,3468.00
2022-08-30T06:38:49.939Z,3508.00
2022-08-30T06:39:49.917Z,3552.00
2022-08-30T06:40:49.969Z,3592.00
2022-08-30T06:41:49.910Z,3644.00
2022-08-30T06:42:50.080Z,3688.00
2022-08-30T06:43:49.892Z,3716.00
2022-08-30T06:44:50.366Z,3744.00
2022-08-30T06:45:49.856Z,3784.00
2022-08-30T06:46:50.032Z,3824.00
2022-08-30T06:47:49.911Z,3892.00
2022-08-30T06:48:49.848Z,3932.00
2022-08-30T06:49:49.836Z,3964.00
2022-08-30T06:50:49.792Z,4004.00
2022-08-30T06:51:49.782Z,4036.00
2022-08-30T06:52:49.776Z,4092.00
2022-08-30T06:53:49.781Z,4156.00
2022-08-30T06:54:49.752Z,4208.00
2022-08-30T06:55:51.504Z,4244.00
2022-08-30T06:56:58.030Z,4256.00
2022-08-30T06:57:49.788Z,4248.00
2022-08-30T06:58:49.717Z,4228.00
2022-08-30T06:59:52.178Z,4192.00
2022-08-30T07:00:49.686Z,4176.00
2022-08-30T07:01:49.749Z,4188.00
2022-08-30T07:02:49.747Z,4228.00
2022-08-30T07:03:49.659Z,4292.00
2022-08-30T07:04:49.645Z,4372.00
2022-08-30T07:05:49.664Z,4452.00
2022-08-30T07:06:49.625Z,4508.00
2022-08-30T07:07:49.637Z,4532.00
2022-08-30T07:08:49.613Z,4552.00
2022-08-30T07:09:49.618Z,4568.00
2022-08-30T07:10:49.572Z,4588.00
2022-08-30T07:11:49.653Z,4592.00
2022-08-30T07:12:49.559Z,4552.00
2022-08-30T07:13:49.537Z,4468.00
2022-08-30T07:14:49.532Z,4380.00
2022-08-30T07:15:49.561Z,4324.00
2022-08-30T07:16:51.129Z,4240.00
2022-08-30T07:17:49.508Z,4196.00
2022-08-30T07:18:49.487Z,4124.00
2022-08-30T07:19:49.509Z,4076.00
2022-08-30T07:20:49.476Z,4140.00
2022-08-30T07:21:49.457Z,4212.00
2022-08-30T07:22:49.452Z,4276.00
2022-08-30T07:23:53.189Z,4356.00
2022-08-30T07:24:49.471Z,4468.00
2022-08-30T07:25:49.413Z,4592.00
2022-08-30T07:26:49.405Z,4700.00
2022-08-30T07:27:49.400Z,4808.00
2022-08-30T07:28:49.392Z,4896.00
2022-08-30T07:29:49.382Z,4992.00
2022-08-30T07:30:49.375Z,5136.00
2022-08-30T07:31:49.340Z,5232.00
2022-08-30T07:32:49.369Z,5340.00
2022-08-30T07:33:49.317Z,5436.00
2022-08-30T07:34:49.312Z,5564.00
2022-08-30T07:35:49.319Z,5668.00
2022-08-30T07:36:49.296Z,5692.00
2022-08-30T07:37:49.301Z,5976.00
2022-08-30T07:38:49.275Z,6160.00
2022-08-30T07:39:49.252Z,6620.00
2022-08-30T07:40:49.313Z,7012.00
2022-08-30T07:41:49.230Z,7764.00
2022-08-30T07:42:49.273Z,8824.00
2022-08-30T07:43:49.245Z,10476.00
2022-08-30T07:44:49.193Z,12072.00
2022-08-30T07:45:49.189Z,13176.00
2022-08-30T07:46:49.281Z,13672.00
2022-08-30T07:47:49.164Z,13956.00
2022-08-30T07:48:49.165Z,13728.00
2022-08-30T07:49:49.171Z,13492.00
2022-08-30T07:50:50.853Z,13236.00
2022-08-30T07:51:49.129Z,12800.00
2022-08-30T07:52:49.126Z,12232.00
2022-08-30T07:53:49.378Z,11688.00
2022-08-30T07:54:52.871Z,11008.00
2022-08-30T07:55:49.850Z,10532.00
2022-08-30T07:56:49.083Z,10248.00
2022-08-30T07:57:49.165Z,10304.00
2022-08-30T07:58:49.054Z,10512.00
2022-08-30T07:59:49.866Z,10780.00
2022-08-30T08:00:49.066Z,11068.00
2022-08-30T08:01:49.093Z,11052.00
2022-08-30T08:02:49.046Z,10448.00
2022-08-30T08:03:49.007Z,9656.00
2022-08-30T08:04:48.970Z,9056.00
2022-08-30T08:05:48.971Z,8992.00
2022-08-30T08:06:48.999Z,8968.00
2022-08-30T08:07:48.947Z,8912.00
2022-08-30T08:08:48.962Z,8992.00
2022-08-30T08:09:48.915Z,8876.00
2022-08-30T08:10:48.924Z,8868.00
2022-08-30T08:11:48.939Z,8980.00
2022-08-30T08:12:48.886Z,9248.00
2022-08-30T08:13:53.292Z,9456.00
2022-08-30T08:14:48.860Z,9508.00
2022-08-30T08:15:48.920Z,9460.00
2022-08-30T08:16:48.846Z,9400.00
2022-08-30T08:17:48.853Z,9152.00
2022-08-30T08:18:48.873Z,8896.00
2022-08-30T08:19:48.845Z,8840.00
2022-08-30T08:20:48.814Z,8984.00
2022-08-30T08:21:59.373Z,9224.00
2022-08-30T08:22:48.806Z,9364.00
2022-08-30T08:23:48.768Z,9360.00
2022-08-30T08:24:48.775Z,9276.00
2022-08-30T08:25:48.745Z,9244.00
2022-08-30T08:26:48.751Z,9344.00
2022-08-30T08:27:48.742Z,9308.00
2022-08-30T08:28:48.723Z,9380.00
2022-08-30T08:29:48.735Z,9608.00
2022-08-30T08:30:55.454Z,10088.00
2022-08-30T08:31:48.748Z,10488.00
2022-08-30T08:32:49.360Z,10724.00
2022-08-30T08:33:48.728Z,11068.00
2022-08-30T08:34:48.655Z,11556.00
2022-08-30T08:35:49.504Z,11996.00
2022-08-30T08:36:48.649Z,12572.00
2022-08-30T08:37:48.703Z,13440.00
2022-08-30T08:38:48.606Z,14048.00
2022-08-30T08:39:48.605Z,14052.00
2022-08-30T08:40:48.931Z,13920.00
2022-08-30T08:41:49.378Z,13696.00
2022-08-30T08:42:54.388Z,13552.00
2022-08-30T08:43:48.546Z,13948.00
2022-08-30T08:44:56.167Z,14700.00
2022-08-30T08:45:48.527Z,15588.00
2022-08-30T08:46:50.105Z,16104.00
2022-08-30T08:47:48.730Z,16240.00
2022-08-30T08:48:59.518Z,16528.00
2022-08-30T08:49:48.495Z,16728.00
2022-08-30T08:50:50.180Z,17152.00
2022-08-30T08:51:48.462Z,17376.00
2022-08-30T08:52:48.450Z,17952.00
2022-08-30T08:53:48.469Z,18240.00
2022-08-30T08:54:48.436Z,18752.00
2022-08-30T08:55:48.431Z,19584.00
2022-08-30T08:56:48.435Z,20384.00
2022-08-30T08:57:48.446Z,27136.00
2022-08-30T08:58:50.297Z,43168.00
2022-08-30T08:59:48.393Z,34432.00
2022-08-30T09:00:48.598Z,32640.00
2022-08-30T09:01:50.612Z,35296.00
2022-08-30T09:02:49.940Z,24832.00
2022-08-30T09:03:48.354Z,25184.00
2022-08-30T09:04:48.391Z,31104.00
2022-08-30T09:05:48.387Z,21504.00
2022-08-30T09:06:48.355Z,23168.00
2022-08-30T09:07:48.312Z,21472.00
2022-08-30T09:08:48.344Z,18496.00
2022-08-30T09:09:48.318Z,17056.00
2022-08-30T09:10:50.687Z,16224.00
2022-08-30T09:11:48.251Z,16180.00
2022-08-30T09:12:48.954Z,16668.00
2022-08-30T09:13:48.247Z,18336.00
2022-08-30T09:14:48.252Z,46656.00
2022-08-30T09:15:52.446Z,57952.00
2022-08-30T09:16:48.264Z,74912.00
2022-08-30T09:17:48.197Z,88032.00
2022-08-30T09:18:50.213Z,94912.00
2022-08-30T09:19:48.156Z,60224.00
2022-08-30T09:20:48.173Z,57792.00
2022-08-30T09:21:48.161Z,40064.00
2022-08-30T09:22:48.127Z,77792.00
2022-08-30T09:23:48.145Z,27808.00
2022-08-30T09:24:48.119Z,29952.00
2022-08-30T09:25:49.590Z,23584.00
2022-08-30T09:26:48.097Z,13808.00
2022-08-30T09:27:48.092Z,12404.00
2022-08-30T09:28:49.322Z,11240.00
2022-08-30T09:29:48.090Z,11376.00
2022-08-30T09:30:48.109Z,11808.00
2022-08-30T09:31:48.075Z,12396.00
2022-08-30T09:32:48.041Z,12952.00
2022-08-30T09:33:48.035Z,13460.00
2022-08-30T09:34:48.041Z,14060.00
2022-08-30T09:35:48.014Z,18336.00
2022-08-30T09:36:47.995Z,18496.00
2022-08-30T09:37:47.988Z,90784.00
2022-08-30T09:38:47.988Z,87328.00
2022-08-30T09:39:47.963Z,72352.00
2022-08-30T09:40:49.189Z,64160.00
2022-08-30T09:41:47.933Z,74080.00
2022-08-30T09:42:47.963Z,67360.00
2022-08-30T09:43:47.921Z,71488.00
2022-08-30T09:44:47.923Z,74176.00
2022-08-30T09:45:49.747Z,69440.00
2022-08-30T09:46:47.972Z,72640.00
2022-08-30T09:47:47.880Z,73984.00
2022-08-30T09:48:47.894Z,71872.00
2022-08-30T09:49:47.882Z,75040.00
2022-08-30T09:50:47.854Z,74464.00
2022-08-30T09:51:47.894Z,78848.00
2022-08-30T09:52:50.961Z,77376.00
2022-08-30T09:54:07.134Z,64224.00
2022-08-30T09:54:47.806Z,65888.00
2022-08-30T09:55:47.820Z,65696.00
2022-08-30T09:56:47.809Z,53280.00
2022-08-30T09:57:47.758Z,26784.00
2022-08-30T09:58:47.756Z,70784.00
2022-08-30T09:59:47.743Z,64928.00
2022-08-30T10:00:47.764Z,64800.00
2022-08-30T10:01:47.754Z,51936.00
2022-08-30T10:02:47.744Z,54016.00
2022-08-30T10:03:47.726Z,32192.00
2022-08-30T10:04:47.778Z,26016.00
2022-08-30T10:05:47.731Z,26016.00
2022-08-30T10:06:47.719Z,23104.00
2022-08-30T10:07:47.720Z,23776.00
2022-08-30T10:08:47.666Z,31424.00
2022-08-30T10:09:47.663Z,41280.00
2022-08-30T10:10:47.676Z,53664.00
2022-08-30T10:11:47.653Z,55744.00
2022-08-30T10:12:47.615Z,77184.00
2022-08-30T10:13:47.609Z,84224.00
2022-08-30T10:14:47.617Z,83008.00
2022-08-30T10:15:47.628Z,51040.00
2022-08-30T10:16:47.594Z,35296.00
2022-08-30T10:17:47.635Z,32000.00
2022-08-30T10:18:47.562Z,28576.00
2022-08-30T10:19:47.574Z,28672.00
2022-08-30T10:20:47.555Z,26560.00
2022-08-30T10:21:47.555Z,28032.00
2022-08-30T10:22:47.516Z,27008.00
2022-08-30T10:23:47.588Z,24736.00
2022-08-30T10:24:47.540Z,23904.00
2022-08-30T10:25:47.526Z,23552.00
2022-08-30T10:26:47.465Z,24064.00
2022-08-30T10:27:47.473Z,25440.00
2022-08-30T10:28:47.469Z,24096.00
2022-08-30T10:29:47.451Z,22880.00
2022-08-30T10:30:47.504Z,22624.00
2022-08-30T10:31:47.428Z,22784.00
2022-08-30T10:32:47.450Z,23168.00
2022-08-30T10:33:47.417Z,23904.00
2022-08-30T10:34:47.420Z,26752.00
2022-08-30T10:35:47.410Z,28064.00
2022-08-30T10:36:47.429Z,32800.00
2022-08-30T10:37:47.369Z,29792.00
2022-08-30T10:38:47.376Z,30208.00
2022-08-30T10:39:47.341Z,33216.00
2022-08-30T10:40:47.461Z,63296.00
2022-08-30T10:41:47.339Z,87936.00
2022-08-30T10:42:47.344Z,69472.00
2022-08-30T10:43:50.997Z,86432.00
2022-08-30T10:44:47.320Z,87360.00
2022-08-30T10:45:47.334Z,62688.00
2022-08-30T10:46:47.283Z,30944.00
2022-08-30T10:47:47.279Z,27456.00
2022-08-30T10:48:47.984Z,26304.00
2022-08-30T10:49:47.243Z,24352.00
2022-08-30T10:50:47.256Z,23232.00
2022-08-30T10:51:47.229Z,22976.00
2022-08-30T10:52:47.232Z,23744.00
2022-08-30T10:53:47.212Z,25216.00
2022-08-30T10:54:47.251Z,27392.00
2022-08-30T10:55:50.107Z,51680.00
2022-08-30T10:56:47.171Z,44000.00
2022-08-30T10:57:47.182Z,74944.00
2022-08-30T10:58:47.145Z,64320.00
2022-08-30T10:59:47.164Z,79584.00
2022-08-30T11:00:47.192Z,87360.00
2022-08-30T11:01:47.299Z,93536.00
2022-08-30T11:02:47.129Z,86016.00
2022-08-30T11:03:47.138Z,62464.00
2022-08-30T11:04:47.119Z,89600.00
2022-08-30T11:05:47.097Z,87520.00
2022-08-30T11:06:47.097Z,94848.00
2022-08-30T11:07:47.072Z,71328.00
2022-08-30T11:08:47.091Z,97088.00
2022-08-30T11:09:47.041Z,37472.00
